Portada
METAR-TAF:

METAR-TAF

Aeropuertos :

Fort Smith, Arkansas, Estados Unidos

latitud: 35-20-01N, longitud: 094-21-54W, altitud: 142 m

Observación

El informe se hizo hace 41 minutos, a las 11:53 UTC
Viento 3 kt del este-noreste
Temperatura 23°C
Humedad 89%
Presión 1019 hPa
Visibilidad: 16.1 km
Cielo despejado

METAR: KFSM 221153Z 06003KT 10SM CLR 23/21 A3008 RMK AO2 SLP181 T02280211 10256 20222 51002

Hora: 07:34 (12:34 UTC)

Pronóstico

El informe se hizo hace 1 hora y 14 minutos, a las 11:20 UTC
Pronóstico válido del 22 a las 12 UTC al 23 a las 12 UTC
Viento 3 kt del este
Visibilidad: 10 km
Escasas nubes a una altura de 5000 ft
Nubes dispersas a una altura de 25000 ft
A partir de las 22 a las 1500 UTC
Viento 9 kt del suroeste
Visibilidad: 10 km
Nubes dispersas a una altura de 5000 ft
Nubes dispersas a una altura de 25000 ft

TAF: KFSM 221120Z 2212/2312 09003KT P6SM FEW050 SCT250 FM221500 22009KT P6SM SCT050 SCT250

Observaciones y pronósticos meteorológicos de más de 4000 aeropuertos (mensajes METAR y TAF).

Los puntos amarillos y rojos representan las estaciones disponibles.

Ponga el ratón en el punto deseado para ver el nombre de la estación.

Haga clic para ver las observaciones y los pronósticos meteorológicos.

Para cambiar el mapa : haga clic en los botones verdes con una cruz de color negro para hacer un zoom, en el botón verde con un guión para alejar o en las flechas verdes para mapas adyacentes.


METAR-TAF: